createdAt,value
2019-04-11T00:02:12.356Z,72.53
2019-04-11T00:06:48.178Z,75.95
2019-04-11T00:11:24.061Z,81.65
2019-04-11T00:15:59.821Z,80.90
2019-04-11T00:20:36.057Z,81.35
2019-04-11T00:25:11.924Z,73.83
2019-04-11T00:29:47.700Z,82.57
2019-04-11T00:34:23.727Z,81.05
2019-04-11T00:38:59.564Z,77.42
2019-04-11T00:43:39.054Z,80.62
2019-04-11T00:48:13.318Z,78.67
2019-04-11T00:52:49.613Z,78.92
2019-04-11T00:57:25.535Z,87.02
2019-04-11T01:02:01.420Z,81.87
2019-04-11T01:06:38.357Z,86.02
2019-04-11T01:11:14.257Z,84.17
2019-04-11T01:16:11.809Z,80.60
2019-04-11T01:20:48.065Z,87.72
2019-04-11T01:25:24.380Z,79.40
2019-04-11T01:30:00.209Z,82.70
2019-04-11T01:34:36.974Z,83.55
2019-04-11T01:39:45.267Z,80.72
2019-04-11T01:44:21.133Z,81.80
2019-04-11T01:49:02.562Z,79.60
2019-04-11T01:53:39.498Z,79.03
2019-04-11T01:58:16.289Z,79.72
2019-04-11T02:02:56.971Z,85.38
2019-04-11T02:07:32.847Z,80.72
2019-04-11T02:12:08.620Z,80.30
2019-04-11T02:16:45.328Z,79.85
2019-04-11T02:21:21.933Z,84.95
2019-04-11T02:26:13.516Z,77.15
2019-04-11T02:30:52.068Z,83.67
2019-04-11T02:35:28.945Z,84.28
2019-04-11T02:40:07.543Z,78.12
2019-04-11T02:44:59.211Z,88.55
2019-04-11T02:49:22.090Z,77.53
2019-04-11T02:54:02.274Z,79.22
2019-04-11T02:58:36.695Z,77.80
2019-04-11T03:03:13.072Z,84.45
2019-04-11T03:07:49.873Z,82.88
2019-04-11T03:12:27.409Z,84.65
2019-04-11T03:17:14.012Z,77.00
2019-04-11T03:21:43.665Z,82.27
2019-04-11T03:26:19.073Z,86.08
2019-04-11T03:31:27.476Z,81.08
2019-04-11T03:36:27.626Z,85.77
2019-04-11T03:40:33.592Z,81.35
2019-04-11T03:45:11.401Z,80.50
2019-04-11T03:49:35.422Z,86.40
2019-04-11T03:54:04.913Z,84.65
2019-04-11T03:58:41.870Z,89.47
2019-04-11T04:03:20.063Z,86.17
2019-04-11T04:07:58.220Z,92.60
2019-04-11T04:12:35.570Z,95.15
2019-04-11T04:17:34.999Z,88.33
2019-04-11T04:22:20.640Z,88.05
2019-04-11T04:26:59.109Z,93.22
2019-04-11T04:31:35.162Z,86.85
2019-04-11T04:36:11.832Z,89.42
2019-04-11T04:41:00.371Z,83.65
2019-04-11T04:45:27.670Z,84.35
2019-04-11T04:50:04.671Z,89.40
2019-04-11T04:54:41.248Z,91.22
2019-04-11T04:59:17.059Z,88.92
2019-04-11T05:03:54.035Z,91.35
2019-04-11T05:08:30.566Z,90.32
2019-04-11T05:13:07.828Z,83.07
2019-04-11T05:17:44.443Z,89.50
2019-04-11T05:22:22.397Z,92.30
2019-04-11T05:26:58.305Z,92.78
2019-04-11T05:31:34.455Z,84.20
2019-04-11T05:36:10.341Z,87.20
2019-04-11T05:40:46.192Z,80.30
2019-04-11T05:45:24.398Z,88.40
2019-04-11T05:50:28.458Z,89.42
2019-04-11T05:55:08.260Z,82.85
2019-04-11T05:59:48.756Z,89.92
2019-04-11T06:04:46.868Z,78.60
2019-04-11T06:09:31.355Z,78.72
2019-04-11T06:14:33.933Z,78.02
2019-04-11T06:19:28.642Z,74.65
2019-04-11T06:24:21.941Z,75.42
2019-04-11T06:29:14.769Z,66.47
2019-04-11T06:34:00.772Z,64.77
2019-04-11T06:38:56.713Z,65.10
2019-04-11T06:43:38.425Z,63.48
2019-04-11T06:48:35.973Z,67.40
2019-04-11T06:53:14.746Z,76.17
2019-04-11T06:57:51.663Z,65.55
2019-04-11T07:02:28.297Z,63.58
2019-04-11T07:07:06.496Z,62.45
2019-04-11T07:11:48.482Z,61.80
2019-04-11T07:16:25.392Z,66.45
2019-04-11T07:21:06.355Z,62.67
2019-04-11T07:26:04.457Z,67.75
2019-04-11T07:30:58.057Z,70.65
2019-04-11T07:36:05.731Z,64.55
2019-04-11T07:41:09.892Z,69.92
2019-04-11T07:46:07.463Z,69.25
2019-04-11T07:50:44.315Z,70.50
2019-04-11T07:55:22.489Z,64.12
2019-04-11T08:00:05.996Z,72.17
2019-04-11T08:04:59.329Z,69.53
2019-04-11T08:09:43.809Z,66.67
2019-04-11T08:14:38.651Z,61.80
2019-04-11T08:19:32.992Z,66.40
2019-04-11T08:24:12.064Z,61.15
2019-04-11T08:28:59.586Z,60.60
2019-04-11T08:33:26.751Z,64.53
2019-04-11T08:38:07.928Z,56.45
2019-04-11T08:43:08.690Z,66.42
2019-04-11T08:47:53.933Z,72.50
2019-04-11T08:52:57.438Z,59.80
2019-04-11T08:57:36.151Z,57.80
2019-04-11T09:02:16.398Z,62.62
2019-04-11T09:06:52.587Z,57.27
2019-04-11T09:12:00.637Z,56.83
2019-04-11T09:17:04.457Z,55.98
2019-04-11T09:21:58.319Z,64.85
2019-04-11T09:26:51.976Z,56.08
2019-04-11T09:31:45.664Z,59.13
2019-04-11T09:36:40.937Z,60.40
2019-04-11T09:41:36.534Z,59.88
2019-04-11T09:46:40.748Z,61.40
2019-04-11T09:51:50.514Z,58.13
2019-04-11T09:57:00.369Z,55.65
2019-04-11T10:01:45.173Z,55.20
2019-04-11T10:06:40.991Z,59.40
2019-04-11T10:11:34.531Z,58.13
2019-04-11T10:16:29.349Z,59.60
2019-04-11T10:21:05.229Z,60.52
2019-04-11T10:25:45.570Z,63.33
2019-04-11T10:30:40.330Z,55.73
2019-04-11T10:35:38.694Z,56.73
2019-04-11T10:40:32.277Z,59.42
2019-04-11T10:45:31.195Z,54.55
2019-04-11T10:50:25.718Z,63.20
2019-04-11T10:55:07.468Z,62.95
2019-04-11T10:59:43.236Z,58.25
2019-04-11T11:04:27.717Z,52.05
2019-04-11T11:09:12.797Z,56.80
2019-04-11T11:14:14.289Z,55.43
2019-04-11T11:19:45.807Z,53.40
2019-04-11T11:24:39.482Z,61.90
2019-04-11T11:29:47.626Z,62.67
2019-04-11T11:34:30.579Z,59.93
2019-04-11T11:39:26.898Z,56.30
2019-04-11T11:44:03.472Z,55.63
2019-04-11T11:48:41.742Z,58.38
2019-04-11T11:53:25.867Z,49.80
2019-04-11T11:58:18.244Z,55.98
2019-04-11T12:03:12.803Z,53.15
2019-04-11T12:08:10.816Z,50.83
2019-04-11T12:13:10.870Z,58.63
2019-04-11T12:18:01.806Z,53.50
2019-04-11T12:22:40.602Z,56.08
2019-04-11T12:27:35.290Z,52.80
2019-04-11T12:32:14.525Z,52.93
2019-04-11T12:42:07.512Z,53.45
2019-04-11T12:47:01.028Z,49.33
2019-04-11T12:52:07.881Z,57.67
2019-04-11T12:57:07.813Z,50.95
2019-04-11T13:02:17.764Z,56.68
2019-04-11T13:07:15.864Z,46.40
2019-04-11T13:11:52.333Z,52.60
2019-04-11T13:16:28.647Z,53.92
2019-04-11T13:21:07.976Z,53.55
2019-04-11T13:26:01.142Z,51.73
2019-04-11T13:30:54.693Z,51.00
2019-04-11T13:36:04.849Z,54.35
2019-04-11T13:41:02.400Z,45.90
2019-04-11T13:45:47.002Z,47.48
2019-04-11T13:50:22.770Z,45.28
2019-04-11T13:55:13.505Z,45.12
2019-04-11T14:00:20.126Z,46.65
2019-04-11T14:04:55.961Z,52.03
2019-04-11T14:09:35.137Z,49.77
2019-04-11T14:14:14.400Z,49.98
2019-04-11T14:19:11.635Z,48.60
2019-04-11T14:24:02.463Z,52.23
2019-04-11T14:29:03.190Z,51.90
2019-04-11T14:33:40.551Z,43.38
2019-04-11T14:38:17.976Z,49.23
2019-04-11T14:43:16.102Z,48.87
2019-04-11T14:48:10.171Z,52.33
2019-04-11T14:53:05.892Z,45.83
2019-04-11T14:57:53.539Z,56.85
2019-04-11T15:02:44.348Z,52.78
2019-04-11T15:07:20.152Z,56.92
2019-04-11T15:11:59.136Z,51.37
2019-04-11T15:16:52.465Z,54.98
2019-04-11T15:21:45.904Z,45.23
2019-04-11T15:26:43.501Z,51.10
2019-04-11T15:31:38.807Z,45.70
2019-04-11T15:36:06.251Z,52.45
2019-04-11T15:40:45.578Z,50.88
2019-04-11T15:45:31.029Z,47.13
2019-04-11T15:50:25.733Z,49.88
2019-04-11T15:55:21.901Z,56.37
2019-04-11T16:00:25.129Z,53.00
2019-04-11T16:05:31.501Z,44.58
2019-04-11T16:10:07.008Z,44.65
2019-04-11T16:14:42.792Z,48.48
2019-04-11T16:19:35.845Z,47.35
2019-04-11T16:24:17.680Z,45.60
2019-04-11T16:29:16.508Z,48.65
2019-04-11T16:34:17.029Z,49.73
2019-04-11T16:39:20.619Z,54.88
2019-04-11T16:43:59.700Z,53.02
2019-04-11T16:48:35.661Z,53.40
2019-04-11T16:53:11.776Z,51.02
2019-04-11T16:57:47.700Z,57.30
2019-04-11T17:02:24.235Z,54.63
2019-04-11T17:07:20.789Z,52.10
2019-04-11T17:11:57.226Z,50.15
2019-04-11T17:16:33.907Z,55.63
2019-04-11T17:21:09.990Z,51.75
2019-04-11T17:25:48.125Z,54.05
2019-04-11T17:30:24.706Z,57.35
2019-04-11T17:35:01.910Z,56.50
2019-04-11T17:39:38.273Z,51.83
2019-04-11T17:44:14.048Z,57.50
2019-04-11T17:48:50.502Z,53.70
2019-04-11T17:53:26.400Z,52.88
2019-04-11T17:58:03.118Z,56.68
2019-04-11T18:02:41.620Z,52.83
2019-04-11T18:07:20.101Z,57.20
2019-04-11T18:11:56.852Z,51.35
2019-04-11T18:16:33.405Z,52.50
2019-04-11T18:21:09.758Z,52.62
2019-04-11T18:25:48.856Z,63.95
2019-04-11T18:30:25.635Z,59.50
2019-04-11T18:35:03.212Z,61.18
2019-04-11T18:39:39.829Z,57.88
2019-04-11T18:44:18.130Z,57.23
2019-04-11T18:48:56.004Z,56.53
2019-04-11T18:53:33.007Z,55.33
2019-04-11T18:58:09.522Z,55.30
2019-04-11T19:02:47.169Z,52.55
2019-04-11T19:07:28.005Z,52.62
2019-04-11T19:12:03.341Z,60.75
2019-04-11T19:16:39.248Z,56.95
2019-04-11T19:21:15.087Z,55.67
2019-04-11T19:25:51.213Z,55.38
2019-04-11T19:30:27.458Z,60.48
2019-04-11T19:35:03.678Z,57.05
2019-04-11T19:39:39.930Z,52.90
2019-04-11T19:44:19.417Z,56.40
2019-04-11T19:48:59.041Z,57.62
2019-04-11T19:53:33.867Z,54.73
2019-04-11T19:58:10.175Z,56.10
2019-04-11T20:02:46.799Z,54.85
2019-04-11T20:07:22.603Z,56.50
2019-04-11T20:12:00.696Z,61.28
2019-04-11T20:16:41.405Z,56.40
2019-04-11T20:21:13.504Z,55.92
2019-04-11T20:25:49.987Z,57.05
2019-04-11T20:30:26.192Z,57.95
2019-04-11T20:35:02.055Z,55.67
2019-04-11T20:39:37.837Z,60.52
2019-04-11T20:44:13.589Z,56.63
2019-04-11T20:48:49.458Z,59.90
2019-04-11T20:53:25.209Z,62.48
2019-04-11T20:58:00.991Z,54.03
2019-04-11T21:02:36.748Z,57.20
2019-04-11T21:07:12.513Z,58.95
2019-04-11T21:11:48.281Z,60.03
2019-04-11T21:16:24.065Z,57.67
2019-04-11T21:20:59.830Z,59.35
2019-04-11T21:25:35.727Z,57.13
2019-04-11T21:30:14.176Z,60.20
2019-04-11T21:34:47.940Z,59.40
2019-04-11T21:39:23.699Z,62.08
2019-04-11T21:43:59.569Z,62.00
2019-04-11T21:48:36.048Z,62.78
2019-04-11T21:53:14.340Z,60.38
2019-04-11T21:57:51.125Z,59.13
2019-04-11T22:02:26.969Z,56.85
2019-04-11T22:07:02.748Z,59.38
2019-04-11T22:11:39.007Z,63.55
2019-04-11T22:16:14.859Z,61.33
2019-04-11T22:20:50.654Z,66.10
2019-04-11T22:25:26.404Z,59.83
2019-04-11T22:30:02.215Z,62.53
2019-04-11T22:34:43.317Z,57.08
2019-04-11T22:39:19.116Z,54.05
2019-04-11T22:43:54.874Z,54.00
2019-04-11T22:48:30.650Z,59.03
2019-04-11T22:53:06.399Z,57.23
2019-04-11T22:57:43.748Z,56.58
2019-04-11T23:02:44.898Z,59.20
2019-04-11T23:07:21.960Z,62.43
2019-04-11T23:11:57.749Z,64.75
2019-04-11T23:16:33.512Z,62.33
2019-04-11T23:21:09.305Z,58.40
2019-04-11T23:25:45.116Z,57.33
2019-04-11T23:30:20.880Z,57.70
2019-04-11T23:34:56.645Z,62.53
2019-04-11T23:39:32.449Z,62.08
2019-04-11T23:44:08.225Z,63.90
2019-04-11T23:48:44.040Z,60.63
2019-04-11T23:53:19.813Z,62.33
2019-04-11T23:57:55.612Z,63.87
